BAW25C KLAX-EGLL
Flight info
| Callsign | BAW25C |
|---|---|
| Flight time | N/A |
| Altitude | 33000 |
| Route | ORCKA5 LAS Q70 BLIPP Q842 WINEN DCT KU54O DCT KU72S DCT KD84U DCT KP15Y DCT 49N100W 5430N09000W 5730N08000W DCT TUNNI DCT GRIBS/M085F370 DCT KETLA DCT 63N050W 6230N04000W 61N030W 59N020W DCT AGORI/N0487F370 DCT OSBOX DCT MIMKU DCT KELLY L10 WAL UY53 NUGRA |
| Aircraft | 773/H-SDE2E3GHIJ3J4J5LM1ORWXY/LB1D1 |
Departure
| Time | 2026-04-23 00:51 |
|---|---|
| Airport | Los Angeles International Airport (KLAX) |
Arrival
| Time | N/A |
|---|---|
| Airport | London Heathrow Airport (EGLL) |
| Time | Latitude | Longitude | Altitude | Speed | Heading |
|---|---|---|---|---|---|
| 2026-04-23 00:25 | 33.94020 | -118.41076 | 98 ft | 0 kts | 83° |
| 2026-04-23 00:39 | 33.94018 | -118.41104 | 97 ft | 4 kts | 84° |
| 2026-04-23 00:39 | 33.94016 | -118.41136 | 97 ft | 4 kts | 85° |
| 2026-04-23 00:40 | 33.94014 | -118.41163 | 97 ft | 4 kts | 100° |
| 2026-04-23 00:40 | 33.94025 | -118.41183 | 97 ft | 4 kts | 165° |
| 2026-04-23 00:40 | 33.94051 | -118.41189 | 97 ft | 3 kts | 173° |
| 2026-04-23 00:40 | 33.94054 | -118.41189 | 97 ft | 0 kts | 173° |
| 2026-04-23 00:43 | 33.94035 | -118.41186 | 97 ft | 7 kts | 173° |
| 2026-04-23 00:43 | 33.93964 | -118.41176 | 97 ft | 11 kts | 173° |
| 2026-04-23 00:43 | 33.93889 | -118.41165 | 99 ft | 11 kts | 173° |
| 2026-04-23 00:44 | 33.93816 | -118.41155 | 101 ft | 9 kts | 173° |
| 2026-04-23 00:44 | 33.93772 | -118.41121 | 99 ft | 8 kts | 105° |
| 2026-04-23 00:44 | 33.93774 | -118.41024 | 98 ft | 18 kts | 84° |
| 2026-04-23 00:44 | 33.93789 | -118.40873 | 98 ft | 18 kts | 83° |
| 2026-04-23 00:45 | 33.93805 | -118.40721 | 100 ft | 18 kts | 83° |
| 2026-04-23 00:45 | 33.93820 | -118.40569 | 101 ft | 18 kts | 83° |
| 2026-04-23 00:45 | 33.93835 | -118.40417 | 100 ft | 18 kts | 83° |
| 2026-04-23 00:45 | 33.93851 | -118.40265 | 103 ft | 18 kts | 82° |
| 2026-04-23 00:46 | 33.93864 | -118.40143 | 101 ft | 18 kts | 82° |
| 2026-04-23 00:46 | 33.93880 | -118.39991 | 101 ft | 18 kts | 83° |
| 2026-04-23 00:46 | 33.93895 | -118.39839 | 100 ft | 18 kts | 83° |
| 2026-04-23 00:46 | 33.93909 | -118.39686 | 101 ft | 18 kts | 83° |
| 2026-04-23 00:47 | 33.93924 | -118.39534 | 102 ft | 18 kts | 83° |
| 2026-04-23 00:47 | 33.93941 | -118.39385 | 101 ft | 18 kts | 83° |
| 2026-04-23 00:47 | 33.93957 | -118.39233 | 101 ft | 18 kts | 83° |
| 2026-04-23 00:47 | 33.93973 | -118.39080 | 99 ft | 18 kts | 83° |
| 2026-04-23 00:48 | 33.93987 | -118.38928 | 99 ft | 18 kts | 83° |
| 2026-04-23 00:48 | 33.94003 | -118.38778 | 99 ft | 18 kts | 82° |
| 2026-04-23 00:48 | 33.94019 | -118.38626 | 100 ft | 18 kts | 83° |
| 2026-04-23 00:48 | 33.94035 | -118.38475 | 101 ft | 18 kts | 83° |
| 2026-04-23 00:49 | 33.94050 | -118.38322 | 100 ft | 18 kts | 83° |
| 2026-04-23 00:49 | 33.94064 | -118.38179 | 99 ft | 13 kts | 83° |
| 2026-04-23 00:49 | 33.94071 | -118.38119 | 98 ft | 7 kts | 83° |
| 2026-04-23 00:49 | 33.94076 | -118.38061 | 98 ft | 6 kts | 84° |
| 2026-04-23 00:50 | 33.94070 | -118.38032 | 98 ft | 5 kts | 120° |
| 2026-04-23 00:50 | 33.94015 | -118.38003 | 100 ft | 7 kts | 176° |
| 2026-04-23 00:50 | 33.93997 | -118.38021 | 99 ft | 2 kts | 237° |
| 2026-04-23 00:50 | 33.93976 | -118.38111 | 99 ft | 24 kts | 260° |
| 2026-04-23 00:51 | 33.93947 | -118.38364 | 103 ft | 72 kts | 263° |
| 2026-04-23 00:51 | 33.93854 | -118.39296 | 99 ft | 153 kts | 263° |
| 2026-04-23 00:51 | 33.93699 | -118.40843 | 308 ft | 204 kts | 262° |
| 2026-04-23 00:51 | 33.93507 | -118.42631 | 1023 ft | 229 kts | 261° |
| 2026-04-23 00:52 | 33.93146 | -118.45106 | 2258 ft | 220 kts | 252° |
| 2026-04-23 00:52 | 33.92796 | -118.46307 | 2479 ft | 231 kts | 249° |
| 2026-04-23 00:52 | 33.92188 | -118.48126 | 2865 ft | 243 kts | 248° |
| 2026-04-23 00:52 | 33.91522 | -118.50045 | 3400 ft | 251 kts | 248° |
| 2026-04-23 00:53 | 33.90830 | -118.52011 | 4024 ft | 257 kts | 248° |
| 2026-04-23 00:53 | 33.90119 | -118.54013 | 4616 ft | 263 kts | 248° |
| 2026-04-23 00:53 | 33.89386 | -118.56044 | 5301 ft | 265 kts | 248° |
| 2026-04-23 00:53 | 33.88637 | -118.58095 | 5949 ft | 270 kts | 248° |
| 2026-04-23 00:54 | 33.87872 | -118.60168 | 6626 ft | 272 kts | 248° |
| 2026-04-23 00:54 | 33.87086 | -118.62264 | 7248 ft | 275 kts | 245° |
| 2026-04-23 00:54 | 33.85930 | -118.64099 | 7768 ft | 280 kts | 219° |
| 2026-04-23 00:54 | 33.84204 | -118.65123 | 8370 ft | 285 kts | 193° |
| 2026-04-23 00:55 | 33.82198 | -118.65156 | 8804 ft | 296 kts | 167° |
| 2026-04-23 00:55 | 33.80316 | -118.64123 | 9286 ft | 302 kts | 141° |
| 2026-04-23 00:55 | 33.78958 | -118.62215 | 9874 ft | 302 kts | 116° |
| 2026-04-23 00:55 | 33.78355 | -118.59787 | 10257 ft | 310 kts | 91° |
| 2026-04-23 00:56 | 33.78650 | -118.57198 | 10452 ft | 321 kts | 64° |
| 2026-04-23 00:56 | 33.79940 | -118.54986 | 10590 ft | 329 kts | 36° |
| 2026-04-23 00:56 | 33.81815 | -118.53329 | 10737 ft | 343 kts | 31° |
| 2026-04-23 00:56 | 33.83846 | -118.51652 | 10900 ft | 363 kts | 31° |
| 2026-04-23 00:57 | 33.85954 | -118.49893 | 11138 ft | 381 kts | 32° |
| 2026-04-23 00:57 | 33.88136 | -118.48013 | 11648 ft | 389 kts | 32° |
| 2026-04-23 00:57 | 33.90372 | -118.46098 | 12223 ft | 396 kts | 32° |
| 2026-04-23 00:57 | 33.92512 | -118.43946 | 12741 ft | 407 kts | 40° |
| 2026-04-23 00:58 | 33.94436 | -118.41380 | 13293 ft | 417 kts | 49° |
| 2026-04-23 00:58 | 33.96109 | -118.38491 | 13912 ft | 423 kts | 53° |
| 2026-04-23 00:58 | 33.97736 | -118.35511 | 14519 ft | 427 kts | 53° |
| 2026-04-23 00:58 | 33.99397 | -118.32523 | 15119 ft | 432 kts | 52° |
| 2026-04-23 00:59 | 34.01079 | -118.29543 | 15715 ft | 436 kts | 52° |
| 2026-04-23 00:59 | 34.02804 | -118.26504 | 16306 ft | 440 kts | 51° |
| 2026-04-23 00:59 | 34.04542 | -118.23443 | 16864 ft | 445 kts | 51° |
| 2026-04-23 00:59 | 34.06301 | -118.20342 | 17419 ft | 450 kts | 51° |
| 2026-04-23 01:00 | 34.08075 | -118.17211 | 17943 ft | 454 kts | 51° |
| 2026-04-23 01:00 | 34.09861 | -118.14048 | 18442 ft | 458 kts | 51° |
| 2026-04-23 01:00 | 34.11662 | -118.10856 | 18947 ft | 462 kts | 51° |
| 2026-04-23 01:00 | 34.13490 | -118.07620 | 19449 ft | 467 kts | 51° |
| 2026-04-23 01:01 | 34.15332 | -118.04357 | 19934 ft | 471 kts | 51° |
| 2026-04-23 01:01 | 34.17191 | -118.01057 | 20413 ft | 476 kts | 51° |
| 2026-04-23 01:01 | 34.19042 | -117.97769 | 20942 ft | 478 kts | 51° |
| 2026-04-23 01:01 | 34.20921 | -117.94435 | 21454 ft | 479 kts | 51° |
| 2026-04-23 01:02 | 34.22816 | -117.91066 | 21740 ft | 489 kts | 51° |
| 2026-04-23 01:02 | 34.24728 | -117.87640 | 22123 ft | 493 kts | 52° |
| 2026-04-23 01:02 | 34.26657 | -117.84192 | 22594 ft | 496 kts | 51° |
| 2026-04-23 01:02 | 34.28602 | -117.80720 | 23007 ft | 499 kts | 51° |
| 2026-04-23 01:03 | 34.30557 | -117.77227 | 23405 ft | 503 kts | 51° |
| 2026-04-23 01:03 | 34.32502 | -117.73749 | 23995 ft | 501 kts | 52° |
| 2026-04-23 01:03 | 34.34446 | -117.70281 | 24660 ft | 496 kts | 51° |
| 2026-04-23 01:03 | 34.36200 | -117.67116 | 25318 ft | 492 kts | 52° |
| 2026-04-23 01:04 | 34.38116 | -117.63650 | 25955 ft | 488 kts | 51° |
| 2026-04-23 01:04 | 34.40086 | -117.60337 | 26652 ft | 479 kts | 45° |
| 2026-04-23 01:04 | 34.44373 | -117.54302 | 28024 ft | 464 kts | 43° |
| 2026-04-23 01:05 | 34.46523 | -117.51381 | 28376 ft | 468 kts | 42° |
| 2026-04-23 01:05 | 34.48689 | -117.48436 | 28419 ft | 478 kts | 43° |
| 2026-04-23 01:05 | 34.50903 | -117.45394 | 28592 ft | 484 kts | 43° |
| 2026-04-23 01:05 | 34.53136 | -117.42286 | 28743 ft | 492 kts | 44° |
| 2026-04-23 01:06 | 34.55386 | -117.39119 | 28889 ft | 499 kts | 44° |
| 2026-04-23 01:06 | 34.57664 | -117.35897 | 28994 ft | 507 kts | 44° |
| 2026-04-23 01:06 | 34.62325 | -117.29278 | 29131 ft | 525 kts | 44° |
| 2026-04-23 01:07 | 34.67122 | -117.22400 | 29151 ft | 540 kts | 44° |
| 2026-04-23 01:07 | 34.69586 | -117.18908 | 29285 ft | 544 kts | 44° |
| 2026-04-23 01:07 | 34.72010 | -117.15463 | 29671 ft | 542 kts | 44° |
| 2026-04-23 01:08 | 34.74464 | -117.11969 | 30126 ft | 540 kts | 44° |
| 2026-04-23 01:08 | 34.76897 | -117.08500 | 30559 ft | 538 kts | 44° |
| 2026-04-23 01:08 | 34.79328 | -117.05031 | 30888 ft | 538 kts | 44° |
| 2026-04-23 01:08 | 34.81753 | -117.01561 | 31171 ft | 539 kts | 44° |
| 2026-04-23 01:09 | 34.84183 | -116.98080 | 31416 ft | 540 kts | 44° |
| 2026-04-23 01:09 | 34.86598 | -116.94619 | 31627 ft | 542 kts | 44° |
| 2026-04-23 01:09 | 34.89042 | -116.91114 | 31901 ft | 542 kts | 44° |
| 2026-04-23 01:09 | 34.91481 | -116.87610 | 32192 ft | 542 kts | 44° |
| 2026-04-23 01:10 | 34.93924 | -116.84096 | 32464 ft | 542 kts | 44° |
| 2026-04-23 01:10 | 34.96343 | -116.80612 | 32689 ft | 542 kts | 44° |
| 2026-04-23 01:10 | 34.98783 | -116.77101 | 32896 ft | 543 kts | 44° |
| 2026-04-23 01:10 | 35.01242 | -116.73560 | 32944 ft | 547 kts | 44° |
| 2026-04-23 01:11 | 35.06155 | -116.66462 | 33012 ft | 546 kts | 44° |
| 2026-04-23 01:11 | 35.11045 | -116.59381 | 32998 ft | 543 kts | 44° |
| 2026-04-23 01:12 | 35.15878 | -116.52366 | 32996 ft | 542 kts | 44° |
| 2026-04-23 01:12 | 35.20757 | -116.45287 | 32998 ft | 546 kts | 44° |
| 2026-04-23 01:13 | 35.25666 | -116.38146 | 33006 ft | 548 kts | 44° |
| 2026-04-23 01:13 | 35.30577 | -116.30975 | 33000 ft | 549 kts | 44° |
| 2026-04-23 01:14 | 35.35443 | -116.23865 | 32987 ft | 547 kts | 44° |
| 2026-04-23 01:14 | 35.40319 | -116.16719 | 32983 ft | 545 kts | 44° |
| 2026-04-23 01:15 | 35.45183 | -116.09580 | 32984 ft | 544 kts | 44° |
| 2026-04-23 01:15 | 35.50032 | -116.02445 | 32983 ft | 544 kts | 45° |
| 2026-04-23 01:16 | 35.54877 | -115.95302 | 32975 ft | 543 kts | 45° |
| 2026-04-23 01:16 | 35.59718 | -115.88153 | 32974 ft | 543 kts | 45° |
| 2026-04-23 01:17 | 35.64534 | -115.81027 | 32970 ft | 543 kts | 45° |
| 2026-04-23 01:17 | 35.69368 | -115.73858 | 32984 ft | 544 kts | 45° |
| 2026-04-23 01:18 | 35.74172 | -115.66718 | 32960 ft | 545 kts | 45° |
| 2026-04-23 01:18 | 35.79003 | -115.59521 | 32969 ft | 544 kts | 45° |
| 2026-04-23 01:19 | 35.83838 | -115.52303 | 32976 ft | 545 kts | 45° |
| 2026-04-23 01:19 | 35.88670 | -115.45081 | 32971 ft | 544 kts | 45° |
| 2026-04-23 01:20 | 35.93451 | -115.37904 | 32963 ft | 545 kts | 45° |
| 2026-04-23 01:20 | 35.98265 | -115.30670 | 32975 ft | 544 kts | 45° |
| 2026-04-23 01:21 | 36.03075 | -115.23434 | 32965 ft | 544 kts | 45° |
| 2026-04-23 01:21 | 36.07868 | -115.16195 | 32965 ft | 544 kts | 46° |
| 2026-04-23 01:22 | 36.12392 | -115.08706 | 32954 ft | 546 kts | 50° |
| 2026-04-23 01:22 | 36.16832 | -115.01025 | 32931 ft | 548 kts | 50° |
| 2026-04-23 01:23 | 36.21259 | -114.93351 | 32910 ft | 548 kts | 50° |
| 2026-04-23 01:23 | 36.25733 | -114.85673 | 32907 ft | 548 kts | 49° |
| 2026-04-23 01:24 | 36.30204 | -114.78005 | 32903 ft | 548 kts | 50° |
| 2026-04-23 01:24 | 36.34630 | -114.70375 | 32901 ft | 548 kts | 50° |
| 2026-04-23 01:25 | 36.39081 | -114.62676 | 32905 ft | 548 kts | 50° |
| 2026-04-23 01:25 | 36.43538 | -114.54961 | 32905 ft | 547 kts | 50° |
| 2026-04-23 01:26 | 36.47966 | -114.47287 | 32914 ft | 546 kts | 50° |
| 2026-04-23 01:26 | 36.52380 | -114.39610 | 32929 ft | 545 kts | 50° |
| 2026-04-23 01:27 | 36.56772 | -114.31953 | 32929 ft | 546 kts | 50° |
| 2026-04-23 01:27 | 36.61182 | -114.24255 | 32940 ft | 547 kts | 50° |
| 2026-04-23 01:28 | 36.65605 | -114.16509 | 32940 ft | 549 kts | 50° |
| 2026-04-23 01:28 | 36.70025 | -114.08764 | 32943 ft | 550 kts | 50° |
| 2026-04-23 01:29 | 36.73719 | -114.02270 | 32953 ft | 554 kts | 50° |
| 2026-04-23 01:29 | 36.78206 | -113.94363 | 32955 ft | 561 kts | 51° |
| 2026-04-23 01:30 | 36.82724 | -113.86379 | 32955 ft | 565 kts | 51° |
| 2026-04-23 01:30 | 36.87201 | -113.78452 | 32929 ft | 566 kts | 51° |
| 2026-04-23 01:31 | 36.91431 | -113.70941 | 32942 ft | 565 kts | 51° |
| 2026-04-23 01:31 | 36.95930 | -113.62927 | 32941 ft | 562 kts | 51° |
| 2026-04-23 01:32 | 37.00385 | -113.54986 | 32946 ft | 560 kts | 51° |
| 2026-04-23 01:32 | 37.04863 | -113.46991 | 32944 ft | 560 kts | 51° |
| 2026-04-23 01:33 | 37.08962 | -113.39644 | 32929 ft | 561 kts | 51° |